La rose des vents
Donnes mto: Semaine 11/04/22 - 17/04/22 (S 15)
Date Horaire Temp. E. Hum. E. P.atmo. Pluie Vent 1mn Direction Ensoleilleme Ev.Tr. Solaire P. de rose Temp au vent Rafales
11/04/2022 00:00 7,9 C 70 % 1019,5 hPa 0,0 mm 0,0 km/h (0 Bft) N 0,00 h 0,025 mm 0 W/m 2,8 C 7,9 C 0,2 km/h (0 Bft)
11/04/2022 01:00 7,5 C 65 % 1019,8 hPa 0,0 mm 0,6 km/h (0 Bft) SO 0,00 h 0,025 mm 0 W/m 1,4 C 7,5 C 1,3 km/h (1 Bft)
11/04/2022 02:00 7,3 C 56 % 1019,7 hPa 0,0 mm 0,7 km/h (0 Bft) SO 0,00 h 0,025 mm 0 W/m -1,0 C 7,3 C 2,4 km/h (1 Bft)
11/04/2022 03:00 7,0 C 55 % 1019,7 hPa 0,0 mm 0,1 km/h (0 Bft) SO 0,00 h 0,025 mm 0 W/m -1,3 C 7,0 C 0,7 km/h (0 Bft)
11/04/2022 04:00 6,6 C 55 % 1019,8 hPa 0,0 mm 0,3 km/h (0 Bft) SO 0,00 h 0,025 mm 0 W/m -1,8 C 6,6 C 1,0 km/h (0 Bft)
11/04/2022 05:00 6,1 C 54 % 1020,0 hPa 0,0 mm 0,3 km/h (0 Bft) SO 0,00 h 0,025 mm 0 W/m -2,4 C 6,1 C 1,3 km/h (1 Bft)
11/04/2022 06:00 5,9 C 55 % 1020,0 hPa 0,0 mm 0,1 km/h (0 Bft) SO 0,00 h 0,025 mm 5 W/m -2,5 C 5,9 C 0,5 km/h (0 Bft)
11/04/2022 07:00 5,8 C 54 % 1020,4 hPa 0,0 mm 0,3 km/h (0 Bft) SO 0,00 h 0,000 mm 16 W/m -2,7 C 5,8 C 1,1 km/h (0 Bft)
11/04/2022 08:00 6,9 C 54 % 1021,0 hPa 0,0 mm 0,0 km/h (0 Bft) N 0,00 h 0,025 mm 32 W/m -1,6 C 6,9 C 0,0 km/h (0 Bft)
11/04/2022 09:00 11,3 C 56 % 1021,3 hPa 0,0 mm 0,7 km/h (0 Bft) N 0,87 h 0,025 mm 366 W/m 2,8 C 11,3 C 2,9 km/h (1 Bft)
11/04/2022 10:00 15,7 C 54 % 1021,4 hPa 0,0 mm 2,0 km/h (1 Bft) E 1,00 h 0,178 mm 547 W/m 6,5 C 15,7 C 6,2 km/h (2 Bft)
11/04/2022 11:00 16,0 C 59 % 1021,7 hPa 0,0 mm 2,5 km/h (1 Bft) E-SE 0,83 h 0,305 mm 608 W/m 8,0 C 16,0 C 7,8 km/h (2 Bft)
11/04/2022 12:00 17,1 C 56 % 1021,6 hPa 0,0 mm 2,2 km/h (1 Bft) E 0,97 h 0,330 mm 736 W/m 8,3 C 17,1 C 6,8 km/h (2 Bft)
11/04/2022 13:00 16,7 C 57 % 1021,3 hPa 0,0 mm 1,7 km/h (1 Bft) E 0,52 h 0,406 mm 460 W/m 8,0 C 16,7 C 5,8 km/h (2 Bft)
11/04/2022 14:00 17,1 C 56 % 1021,2 hPa 0,0 mm 2,7 km/h (1 Bft) E 0,90 h 0,254 mm 670 W/m 8,1 C 17,1 C 7,8 km/h (2 Bft)
11/04/2022 15:00 16,6 C 60 % 1020,9 hPa 0,0 mm 1,7 km/h (1 Bft) E 0,85 h 0,381 mm 452 W/m 8,8 C 16,6 C 5,9 km/h (2 Bft)
11/04/2022 16:00 16,4 C 63 % 1020,3 hPa 0,0 mm 1,7 km/h (1 Bft) E 0,80 h 0,254 mm 420 W/m 9,4 C 16,4 C 5,8 km/h (2 Bft)
11/04/2022 17:00 15,3 C 71 % 1019,9 hPa 0,0 mm 1,3 km/h (1 Bft) E 0,03 h 0,254 mm 206 W/m 9,9 C 15,3 C 5,1 km/h (1 Bft)
11/04/2022 18:00 14,1 C 75 % 1019,9 hPa 0,0 mm 0,9 km/h (0 Bft) E 0,23 h 0,127 mm 126 W/m 9,7 C 14,1 C 3,6 km/h (1 Bft)
11/04/2022 19:00 13,2 C 78 % 1019,8 hPa 0,0 mm 0,4 km/h (0 Bft) N-NE 0,03 h 0,076 mm 45 W/m 9,4 C 13,2 C 2,2 km/h (1 Bft)
11/04/2022 20:00 12,0 C 84 % 1019,8 hPa 0,0 mm 0,1 km/h (0 Bft) N-NE 0,00 h 0,025 mm 6 W/m 9,3 C 12,0 C 1,2 km/h (1 Bft)
11/04/2022 21:00 11,4 C 87 % 1020,0 hPa 0,0 mm 0,0 km/h (0 Bft) N 0,00 h 0,000 mm 0 W/m 9,3 C 11,4 C 0,2 km/h (0 Bft)
11/04/2022 22:00 11,2 C 87 % 1020,0 hPa 0,0 mm 0,0 km/h (0 Bft) N 0,00 h 0,000 mm 0 W/m 9,0 C 11,2 C 0,0 km/h (0 Bft)
11/04/2022 23:00 10,5 C 85 % 1019,9 hPa 0,0 mm 0,0 km/h (0 Bft) N 0,00 h 0,000 mm 0 W/m 8,1 C 10,5 C 0,0 km/h (0 Bft)
12/04/2022 00:00 9,3 C 86 % 1019,5 hPa 0,0 mm 0,0 km/h (0 Bft) N 0,00 h 0,000 mm 0 W/m 7,1 C 9,3 C 0,0 km/h (0 Bft)
12/04/2022 01:00 8,4 C 87 % 1019,4 hPa 0,0 mm 0,0 km/h (0 Bft) N-NE 0,00 h 0,000 mm 0 W/m 6,4 C 8,4 C 0,2 km/h (0 Bft)
12/04/2022 02:00 7,7 C 88 % 1018,8 hPa 0,0 mm 0,0 km/h (0 Bft) N 0,00 h 0,000 mm 0 W/m 5,9 C 7,7 C 0,1 km/h (0 Bft)
12/04/2022 03:00 7,2 C 88 % 1018,3 hPa 0,0 mm 0,2 km/h (0 Bft) N-NE 0,00 h 0,000 mm 0 W/m 5,3 C 7,2 C 1,0 km/h (0 Bft)
12/04/2022 04:00 6,8 C 88 % 1018,1 hPa 0,0 mm 0,0 km/h (0 Bft) N 0,00 h 0,000 mm 0 W/m 4,9 C 6,8 C 0,2 km/h (0 Bft)
12/04/2022 05:00 6,7 C 86 % 1017,8 hPa 0,0 mm 0,0 km/h (0 Bft) N 0,00 h 0,000 mm 0 W/m 4,5 C 6,7 C 0,0 km/h (0 Bft)
12/04/2022 06:00 7,1 C 82 % 1017,7 hPa 0,0 mm 0,0 km/h (0 Bft) N 0,00 h 0,000 mm 5 W/m 4,2 C 7,1 C 0,2 km/h (0 Bft)
12/04/2022 07:00 7,2 C 80 % 1017,9 hPa 0,0 mm 0,0 km/h (0 Bft) N 0,00 h 0,000 mm 21 W/m 3,9 C 7,2 C 0,1 km/h (0 Bft)
12/04/2022 08:00 8,1 C 79 % 1018,1 hPa 0,0 mm 0,0 km/h (0 Bft) N 0,00 h 0,000 mm 68 W/m 4,6 C 8,1 C 0,1 km/h (0 Bft)
12/04/2022 09:00 11,7 C 68 % 1018,3 hPa 0,0 mm 0,5 km/h (0 Bft) N-NE 0,78 h 0,025 mm 296 W/m 5,9 C 11,7 C 1,8 km/h (1 Bft)
12/04/2022 10:00 15,7 C 61 % 1018,3 hPa 0,0 mm 2,9 km/h (1 Bft) E 1,00 h 0,152 mm 507 W/m 8,2 C 15,7 C 8,0 km/h (2 Bft)
12/04/2022 11:00 17,3 C 62 % 1018,1 hPa 0,0 mm 5,6 km/h (1 Bft) E 1,00 h 0,279 mm 652 W/m 9,9 C 17,3 C 15,1 km/h (3 Bft)
12/04/2022 12:00 17,2 C 62 % 1017,9 hPa 0,0 mm 6,2 km/h (2 Bft) E 1,00 h 0,381 mm 681 W/m 9,8 C 17,2 C 18,0 km/h (3 Bft)
12/04/2022 13:00 16,5 C 64 % 1018,0 hPa 0,0 mm 6,1 km/h (2 Bft) E 1,00 h 0,406 mm 620 W/m 9,7 C 16,5 C 17,7 km/h (3 Bft)
12/04/2022 14:00 17,0 C 64 % 1017,8 hPa 0,0 mm 4,1 km/h (1 Bft) E 1,00 h 0,356 mm 600 W/m 10,0 C 17,0 C 13,9 km/h (3 Bft)
12/04/2022 15:00 17,2 C 62 % 1017,4 hPa 0,0 mm 2,8 km/h (1 Bft) E 0,87 h 0,356 mm 549 W/m 9,9 C 17,2 C 10,7 km/h (2 Bft)
12/04/2022 16:00 16,2 C 64 % 1016,9 hPa 0,0 mm 4,1 km/h (1 Bft) E 0,62 h 0,305 mm 375 W/m 9,3 C 16,2 C 12,3 km/h (3 Bft)
12/04/2022 17:00 15,1 C 65 % 1016,6 hPa 0,0 mm 3,9 km/h (1 Bft) E 0,43 h 0,229 mm 271 W/m 8,5 C 15,1 C 12,0 km/h (2 Bft)
12/04/2022 18:00 14,4 C 64 % 1016,5 hPa 0,0 mm 4,4 km/h (1 Bft) E 0,32 h 0,152 mm 163 W/m 7,6 C 14,4 C 13,1 km/h (3 Bft)
12/04/2022 19:00 13,7 C 62 % 1016,2 hPa 0,0 mm 4,1 km/h (1 Bft) E 0,00 h 0,102 mm 52 W/m 6,6 C 13,7 C 11,3 km/h (2 Bft)
12/04/2022 20:00 13,2 C 58 % 1016,0 hPa 0,0 mm 1,3 km/h (1 Bft) N-NE 0,00 h 0,051 mm 7 W/m 5,2 C 13,2 C 4,4 km/h (1 Bft)
12/04/2022 21:00 12,9 C 60 % 1016,3 hPa 0,0 mm 0,0 km/h (0 Bft) N-NE 0,00 h 0,025 mm 0 W/m 5,2 C 12,9 C 0,3 km/h (0 Bft)
12/04/2022 22:00 12,6 C 61 % 1016,3 hPa 0,0 mm 0,2 km/h (0 Bft) E-SE 0,00 h 0,025 mm 0 W/m 5,2 C 12,6 C 0,9 km/h (0 Bft)
12/04/2022 23:00 12,8 C 58 % 1016,2 hPa 0,0 mm 0,2 km/h (0 Bft) E-NE 0,00 h 0,025 mm 0 W/m 4,7 C 12,8 C 0,9 km/h (0 Bft)
13/04/2022 00:00 12,4 C 58 % 1016,2 hPa 0,0 mm 0,2 km/h (0 Bft) E-NE 0,00 h 0,025 mm 0 W/m 4,4 C 12,4 C 0,9 km/h (0 Bft)
13/04/2022 01:00 12,2 C 61 % 1015,9 hPa 0,0 mm 0,3 km/h (0 Bft) N-NE 0,00 h 0,025 mm 0 W/m 4,9 C 12,2 C 1,4 km/h (1 Bft)
13/04/2022 02:00 12,0 C 63 % 1015,3 hPa 0,0 mm 0,0 km/h (0 Bft) N 0,00 h 0,025 mm 0 W/m 5,2 C 12,0 C 0,2 km/h (0 Bft)
13/04/2022 03:00 11,1 C 65 % 1014,8 hPa 0,0 mm 0,0 km/h (0 Bft) N 0,00 h 0,025 mm 0 W/m 4,8 C 11,1 C 0,1 km/h (0 Bft)
13/04/2022 04:00 10,4 C 68 % 1014,8 hPa 0,0 mm 0,0 km/h (0 Bft) E-SE 0,00 h 0,025 mm 0 W/m 4,8 C 10,4 C 0,0 km/h (0 Bft)
13/04/2022 05:00 9,7 C 73 % 1014,9 hPa 0,0 mm 0,5 km/h (0 Bft) E 0,00 h 0,025 mm 0 W/m 5,1 C 9,6 C 1,4 km/h (1 Bft)
13/04/2022 06:00 10,0 C 75 % 1015,2 hPa 0,0 mm 0,7 km/h (0 Bft) E 0,00 h 0,025 mm 5 W/m 5,8 C 10,0 C 2,2 km/h (1 Bft)
13/04/2022 07:00 10,1 C 73 % 1015,5 hPa 0,0 mm 0,2 km/h (0 Bft) NE 0,00 h 0,000 mm 30 W/m 5,5 C 10,1 C 0,9 km/h (0 Bft)
13/04/2022 08:00 11,0 C 70 % 1015,5 hPa 0,0 mm 0,0 km/h (0 Bft) NE 0,00 h 0,025 mm 62 W/m 5,8 C 11,0 C 0,2 km/h (0 Bft)
13/04/2022 09:00 14,2 C 62 % 1015,7 hPa 0,0 mm 0,3 km/h (0 Bft) E-NE 0,83 h 0,025 mm 335 W/m 7,1 C 14,2 C 1,7 km/h (1 Bft)
13/04/2022 10:00 17,5 C 56 % 1015,8 hPa 0,0 mm 4,9 km/h (1 Bft) E 1,00 h 0,178 mm 518 W/m 8,8 C 17,5 C 12,7 km/h (3 Bft)
13/04/2022 11:00 19,2 C 52 % 1015,9 hPa 0,0 mm 3,3 km/h (1 Bft) E-SE 1,00 h 0,305 mm 670 W/m 9,1 C 19,2 C 10,8 km/h (2 Bft)
13/04/2022 12:00 20,1 C 49 % 1015,9 hPa 0,0 mm 4,4 km/h (1 Bft) E 1,00 h 0,406 mm 732 W/m 9,0 C 20,1 C 12,2 km/h (2 Bft)
13/04/2022 13:00 20,4 C 47 % 1015,6 hPa 0,0 mm 4,8 km/h (1 Bft) E 1,00 h 0,457 mm 765 W/m 8,7 C 20,4 C 14,7 km/h (3 Bft)
13/04/2022 14:00 20,6 C 43 % 1015,7 hPa 0,0 mm 2,3 km/h (1 Bft) E 1,00 h 0,483 mm 743 W/m 7,5 C 20,6 C 8,9 km/h (2 Bft)
13/04/2022 15:00 20,9 C 40 % 1015,9 hPa 0,0 mm 1,7 km/h (1 Bft) E-SE 1,00 h 0,457 mm 669 W/m 6,7 C 20,9 C 7,2 km/h (2 Bft)
13/04/2022 16:00 21,2 C 39 % 1015,7 hPa 0,0 mm 0,8 km/h (0 Bft) E 1,00 h 0,406 mm 543 W/m 6,7 C 21,2 C 4,3 km/h (1 Bft)
13/04/2022 17:00 21,1 C 38 % 1015,6 hPa 0,0 mm 0,4 km/h (0 Bft) E 1,00 h 0,330 mm 394 W/m 6,4 C 21,1 C 2,5 km/h (1 Bft)
13/04/2022 18:00 19,9 C 38 % 1015,4 hPa 0,0 mm 0,5 km/h (0 Bft) N-NE 0,97 h 0,254 mm 217 W/m 5,0 C 19,9 C 2,8 km/h (1 Bft)
13/04/2022 19:00 17,5 C 42 % 1015,5 hPa 0,0 mm 0,1 km/h (0 Bft) N-NE 0,02 h 0,127 mm 36 W/m 4,4 C 17,5 C 0,8 km/h (0 Bft)
13/04/2022 20:00 15,8 C 45 % 1015,6 hPa 0,0 mm 0,0 km/h (0 Bft) N 0,00 h 0,025 mm 5 W/m 3,8 C 15,8 C 0,1 km/h (0 Bft)
13/04/2022 21:00 14,8 C 45 % 1016,0 hPa 0,0 mm 0,0 km/h (0 Bft) N 0,00 h 0,000 mm 0 W/m 3,1 C 14,8 C 0,1 km/h (0 Bft)
13/04/2022 22:00 14,2 C 48 % 1016,1 hPa 0,0 mm 0,0 km/h (0 Bft) N 0,00 h 0,051 mm 0 W/m 3,2 C 14,2 C 0,2 km/h (0 Bft)
13/04/2022 23:00 14,4 C 47 % 1015,7 hPa 0,0 mm 0,0 km/h (0 Bft) N 0,00 h 0,051 mm 0 W/m 3,2 C 14,4 C 0,1 km/h (0 Bft)
14/04/2022 00:00 14,4 C 48 % 1015,8 hPa 0,0 mm 1,5 km/h (1 Bft) S-SO 0,00 h 0,051 mm 0 W/m 3,4 C 14,4 C 2,4 km/h (1 Bft)
14/04/2022 01:00 13,4 C 50 % 1015,9 hPa 0,0 mm 1,5 km/h (1 Bft) S-SO 0,00 h 0,051 mm 0 W/m 3,3 C 13,4 C 2,3 km/h (1 Bft)
14/04/2022 02:00 12,3 C 55 % 1015,7 hPa 0,0 mm 1,0 km/h (0 Bft) S-SO 0,00 h 0,051 mm 0 W/m 3,6 C 12,3 C 1,8 km/h (1 Bft)
14/04/2022 03:00 11,6 C 57 % 1015,6 hPa 0,0 mm 0,3 km/h (0 Bft) S-SO 0,00 h 0,025 mm 0 W/m 3,4 C 11,6 C 1,1 km/h (0 Bft)
14/04/2022 04:00 11,5 C 55 % 1015,4 hPa 0,0 mm 0,1 km/h (0 Bft) S-SO 0,00 h 0,025 mm 0 W/m 2,9 C 11,5 C 0,4 km/h (0 Bft)
14/04/2022 05:00 11,7 C 52 % 1014,9 hPa 0,0 mm 0,1 km/h (0 Bft) S-SO 0,00 h 0,025 mm 0 W/m 2,1 C 11,7 C 0,7 km/h (0 Bft)
14/04/2022 06:00 12,4 C 47 % 1014,7 hPa 0,0 mm 0,0 km/h (0 Bft) N 0,00 h 0,025 mm 6 W/m 1,6 C 12,4 C 0,0 km/h (0 Bft)
14/04/2022 07:00 13,7 C 45 % 1015,1 hPa 0,0 mm 0,0 km/h (0 Bft) N 0,00 h 0,000 mm 20 W/m 1,9 C 13,7 C 0,0 km/h (0 Bft)
14/04/2022 08:00 15,2 C 46 % 1015,4 hPa 0,0 mm 0,0 km/h (0 Bft) S-SO 0,00 h 0,025 mm 39 W/m 3,7 C 15,2 C 0,2 km/h (0 Bft)
14/04/2022 09:00 17,7 C 46 % 1015,5 hPa 0,0 mm 0,0 km/h (0 Bft) S-SO 0,82 h 0,025 mm 353 W/m 5,9 C 17,7 C 0,5 km/h (0 Bft)
14/04/2022 10:00 22,0 C 38 % 1015,7 hPa 0,0 mm 2,0 km/h (1 Bft) S-SO 1,00 h 0,203 mm 550 W/m 6,9 C 22,0 C 4,7 km/h (1 Bft)
14/04/2022 11:00 24,1 C 29 % 1016,2 hPa 0,0 mm 2,3 km/h (1 Bft) SE 1,00 h 0,356 mm 642 W/m 5,1 C 24,1 C 6,6 km/h (2 Bft)
14/04/2022 12:00 24,5 C 31 % 1016,5 hPa 0,0 mm 2,3 km/h (1 Bft) E 0,98 h 0,432 mm 729 W/m 6,1 C 24,5 C 6,8 km/h (2 Bft)
14/04/2022 13:00 24,9 C 33 % 1016,7 hPa 0,0 mm 1,2 km/h (1 Bft) E-SE 1,00 h 0,483 mm 790 W/m 7,6 C 24,9 C 4,9 km/h (1 Bft)
14/04/2022 14:00 24,3 C 34 % 1016,8 hPa 0,0 mm 1,7 km/h (1 Bft) E-SE 1,00 h 0,508 mm 705 W/m 7,3 C 24,3 C 5,2 km/h (1 Bft)
14/04/2022 15:00 25,1 C 30 % 1016,6 hPa 0,0 mm 2,2 km/h (1 Bft) E 0,83 h 0,457 mm 584 W/m 6,3 C 25,1 C 7,9 km/h (2 Bft)
14/04/2022 16:00 23,9 C 32 % 1016,5 hPa 0,0 mm 0,9 km/h (0 Bft) E 0,63 h 0,406 mm 430 W/m 6,2 C 23,9 C 3,0 km/h (1 Bft)
14/04/2022 17:00 22,6 C 34 % 1016,6 hPa 0,0 mm 0,2 km/h (0 Bft) E 0,38 h 0,279 mm 255 W/m 5,9 C 22,6 C 1,4 km/h (1 Bft)
14/04/2022 18:00 21,8 C 35 % 1016,7 hPa 0,0 mm 0,0 km/h (0 Bft) N 0,00 h 0,178 mm 117 W/m 5,7 C 21,8 C 0,0 km/h (0 Bft)
14/04/2022 19:00 20,7 C 36 % 1016,8 hPa 0,0 mm 0,0 km/h (0 Bft) N 0,03 h 0,076 mm 52 W/m 5,2 C 20,7 C 0,0 km/h (0 Bft)
14/04/2022 20:00 19,3 C 35 % 1017,1 hPa 0,0 mm 0,0 km/h (0 Bft) N 0,08 h 0,051 mm 10 W/m 3,4 C 19,3 C 0,0 km/h (0 Bft)
14/04/2022 21:00 18,0 C 39 % 1017,6 hPa 0,0 mm 0,0 km/h (0 Bft) N 0,00 h 0,025 mm 0 W/m 4,0 C 18,0 C 0,0 km/h (0 Bft)
14/04/2022 22:00 17,3 C 39 % 1017,7 hPa 0,0 mm 0,4 km/h (0 Bft) SE 0,00 h 0,051 mm 0 W/m 3,3 C 17,3 C 1,7 km/h (1 Bft)
14/04/2022 23:00 16,8 C 40 % 1017,7 hPa 0,0 mm 0,2 km/h (0 Bft) SE 0,00 h 0,051 mm 0 W/m 3,0 C 16,8 C 0,8 km/h (0 Bft)
15/04/2022 00:00 16,2 C 41 % 1017,8 hPa 0,0 mm 0,1 km/h (0 Bft) SE 0,00 h 0,051 mm 0 W/m 2,8 C 16,2 C 0,9 km/h (0 Bft)
15/04/2022 01:00 15,9 C 41 % 1017,4 hPa 0,0 mm 0,0 km/h (0 Bft) N 0,00 h 0,051 mm 0 W/m 2,8 C 15,9 C 0,4 km/h (0 Bft)
15/04/2022 02:00 15,4 C 43 % 1017,2 hPa 0,0 mm 0,2 km/h (0 Bft) SE 0,00 h 0,051 mm 0 W/m 2,9 C 15,4 C 1,2 km/h (1 Bft)
15/04/2022 03:00 14,9 C 44 % 1017,1 hPa 0,0 mm 0,2 km/h (0 Bft) SE 0,00 h 0,051 mm 0 W/m 2,8 C 14,9 C 1,5 km/h (1 Bft)
15/04/2022 04:00 14,6 C 44 % 1017,0 hPa 0,0 mm 0,3 km/h (0 Bft) SE 0,00 h 0,051 mm 0 W/m 2,6 C 14,6 C 2,2 km/h (1 Bft)
15/04/2022 05:00 14,9 C 44 % 1017,0 hPa 0,0 mm 1,3 km/h (1 Bft) O-NO 0,00 h 0,051 mm 0 W/m 2,8 C 14,9 C 4,2 km/h (1 Bft)
15/04/2022 06:00 15,0 C 45 % 1017,1 hPa 0,0 mm 1,0 km/h (0 Bft) O-NO 0,02 h 0,051 mm 8 W/m 3,2 C 15,0 C 3,5 km/h (1 Bft)
15/04/2022 07:00 15,1 C 45 % 1017,5 hPa 0,0 mm 0,0 km/h (0 Bft) N 0,05 h 0,025 mm 38 W/m 3,4 C 15,1 C 0,2 km/h (0 Bft)
15/04/2022 08:00 16,0 C 45 % 1017,6 hPa 0,0 mm 0,0 km/h (0 Bft) N 0,00 h 0,025 mm 104 W/m 4,1 C 16,0 C 0,0 km/h (0 Bft)
15/04/2022 09:00 19,3 C 41 % 1017,9 hPa 0,0 mm 0,3 km/h (0 Bft) O-NO 0,28 h 0,076 mm 233 W/m 5,6 C 19,3 C 1,0 km/h (0 Bft)
15/04/2022 10:00 22,1 C 36 % 1018,0 hPa 0,0 mm 0,5 km/h (0 Bft) O-NO 1,00 h 0,152 mm 511 W/m 6,5 C 22,1 C 2,3 km/h (1 Bft)
15/04/2022 11:00 24,1 C 34 % 1017,9 hPa 0,0 mm 2,7 km/h (1 Bft) SE 1,00 h 0,330 mm 694 W/m 7,5 C 24,1 C 6,4 km/h (2 Bft)
15/04/2022 12:00 25,8 C 32 % 1017,6 hPa 0,0 mm 1,2 km/h (1 Bft) E-SE 1,00 h 0,457 mm 777 W/m 8,0 C 25,8 C 4,1 km/h (1 Bft)
15/04/2022 13:00 27,6 C 29 % 1017,2 hPa 0,0 mm 1,8 km/h (1 Bft) E 1,00 h 0,508 mm 780 W/m 8,0 C 27,6 C 4,9 km/h (1 Bft)
15/04/2022 14:00 27,6 C 25 % 1016,7 hPa 0,0 mm 5,7 km/h (1 Bft) S 1,00 h 0,533 mm 788 W/m 5,5 C 27,6 C 11,9 km/h (2 Bft)
15/04/2022 15:00 28,0 C 24 % 1015,9 hPa 0,0 mm 6,2 km/h (2 Bft) S-SE 1,00 h 0,584 mm 669 W/m 5,2 C 28,0 C 12,2 km/h (2 Bft)
15/04/2022 16:00 26,7 C 36 % 1015,7 hPa 0,0 mm 0,6 km/h (0 Bft) E 1,00 h 0,508 mm 559 W/m 10,2 C 26,7 C 2,6 km/h (1 Bft)
15/04/2022 17:00 25,6 C 38 % 1015,5 hPa 0,0 mm 0,0 km/h (0 Bft) N 1,00 h 0,381 mm 399 W/m 10,0 C 25,6 C 0,5 km/h (0 Bft)
15/04/2022 18:00 23,8 C 42 % 1015,5 hPa 0,0 mm 0,0 km/h (0 Bft) N 0,92 h 0,254 mm 221 W/m 10,0 C 23,8 C 0,0 km/h (0 Bft)
15/04/2022 19:00 21,4 C 46 % 1015,7 hPa 0,0 mm 0,0 km/h (0 Bft) N 0,03 h 0,152 mm 36 W/m 9,2 C 21,4 C 0,0 km/h (0 Bft)
15/04/2022 20:00 19,0 C 49 % 1015,9 hPa 0,0 mm 0,0 km/h (0 Bft) N 0,03 h 0,025 mm 8 W/m 8,0 C 19,0 C 0,0 km/h (0 Bft)
15/04/2022 21:00 17,8 C 47 % 1016,1 hPa 0,0 mm 0,0 km/h (0 Bft) N 0,00 h 0,025 mm 0 W/m 6,5 C 17,8 C 0,0 km/h (0 Bft)
15/04/2022 22:00 17,2 C 44 % 1016,1 hPa 0,0 mm 0,0 km/h (0 Bft) N 0,00 h 0,051 mm 0 W/m 4,7 C 17,2 C 0,0 km/h (0 Bft)
15/04/2022 23:00 17,5 C 43 % 1015,8 hPa 0,0 mm 0,0 km/h (0 Bft) N 0,00 h 0,051 mm 0 W/m 4,7 C 17,5 C 0,0 km/h (0 Bft)
16/04/2022 00:00 17,5 C 44 % 1015,4 hPa 0,0 mm 0,0 km/h (0 Bft) N 0,00 h 0,051 mm 0 W/m 5,1 C 17,5 C 0,0 km/h (0 Bft)
16/04/2022 01:00 17,8 C 44 % 1015,1 hPa 0,0 mm 0,0 km/h (0 Bft) N 0,00 h 0,051 mm 0 W/m 5,5 C 17,8 C 0,0 km/h (0 Bft)
16/04/2022 02:00 17,9 C 45 % 1014,5 hPa 0,0 mm 0,0 km/h (0 Bft) N 0,00 h 0,051 mm 0 W/m 5,7 C 17,9 C 0,0 km/h (0 Bft)
16/04/2022 03:00 17,3 C 49 % 1014,0 hPa 0,0 mm 0,0 km/h (0 Bft) N 0,00 h 0,051 mm 0 W/m 6,4 C 17,3 C 0,0 km/h (0 Bft)
16/04/2022 04:00 15,6 C 55 % 1013,7 hPa 0,0 mm 0,0 km/h (0 Bft) N 0,00 h 0,051 mm 0 W/m 6,6 C 15,6 C 0,0 km/h (0 Bft)
16/04/2022 05:00 15,2 C 57 % 1013,4 hPa 0,0 mm 0,0 km/h (0 Bft) N 0,00 h 0,025 mm 0 W/m 6,7 C 15,2 C 0,1 km/h (0 Bft)
16/04/2022 06:00 15,4 C 56 % 1013,5 hPa 0,0 mm 0,1 km/h (0 Bft) E 0,00 h 0,025 mm 6 W/m 6,6 C 15,4 C 0,4 km/h (0 Bft)
16/04/2022 07:00 15,5 C 56 % 1014,1 hPa 0,0 mm 0,0 km/h (0 Bft) N 0,00 h 0,000 mm 23 W/m 6,8 C 15,5 C 0,0 km/h (0 Bft)
16/04/2022 08:00 16,4 C 54 % 1014,5 hPa 0,0 mm 0,0 km/h (0 Bft) N 0,00 h 0,025 mm 51 W/m 7,2 C 16,4 C 0,0 km/h (0 Bft)
16/04/2022 09:00 19,3 C 46 % 1014,4 hPa 0,0 mm 0,1 km/h (0 Bft) E 0,78 h 0,025 mm 334 W/m 7,3 C 19,3 C 0,5 km/h (0 Bft)
16/04/2022 10:00 23,7 C 36 % 1014,2 hPa 0,0 mm 1,1 km/h (1 Bft) E 1,00 h 0,203 mm 539 W/m 7,9 C 23,7 C 3,7 km/h (1 Bft)
16/04/2022 11:00 25,4 C 35 % 1014,1 hPa 0,0 mm 3,7 km/h (1 Bft) E 1,00 h 0,356 mm 658 W/m 8,8 C 25,4 C 7,5 km/h (2 Bft)
16/04/2022 12:00 25,4 C 37 % 1013,8 hPa 0,0 mm 4,9 km/h (1 Bft) S 1,00 h 0,457 mm 740 W/m 9,6 C 25,4 C 10,0 km/h (2 Bft)
16/04/2022 13:00 24,6 C 42 % 1013,7 hPa 0,0 mm 4,5 km/h (1 Bft) E 1,00 h 0,508 mm 760 W/m 10,7 C 24,6 C 10,1 km/h (2 Bft)
16/04/2022 14:00 24,3 C 42 % 1013,4 hPa 0,0 mm 4,0 km/h (1 Bft) E 0,97 h 0,508 mm 717 W/m 10,6 C 24,3 C 8,7 km/h (2 Bft)
16/04/2022 15:00 24,5 C 43 % 1013,0 hPa 0,0 mm 4,5 km/h (1 Bft) E 1,00 h 0,483 mm 657 W/m 11,1 C 24,5 C 9,2 km/h (2 Bft)
16/04/2022 16:00 24,6 C 42 % 1012,4 hPa 0,0 mm 1,5 km/h (1 Bft) E 1,00 h 0,457 mm 535 W/m 10,6 C 24,6 C 4,1 km/h (1 Bft)
16/04/2022 17:00 24,3 C 37 % 1011,9 hPa 0,0 mm 0,3 km/h (0 Bft) S 0,25 h 0,356 mm 196 W/m 8,7 C 24,3 C 1,2 km/h (1 Bft)
16/04/2022 18:00 22,5 C 38 % 1012,1 hPa 0,0 mm 0,0 km/h (0 Bft) N 0,00 h 0,127 mm 39 W/m 7,6 C 22,5 C 0,0 km/h (0 Bft)
16/04/2022 19:00 21,0 C 42 % 1012,3 hPa 0,0 mm 0,0 km/h (0 Bft) N 0,00 h 0,025 mm 21 W/m 7,6 C 21,0 C 0,2 km/h (0 Bft)
16/04/2022 20:00 19,9 C 48 % 1012,7 hPa 0,0 mm 0,4 km/h (0 Bft) O-NO 0,00 h 0,025 mm 0 W/m 8,6 C 19,9 C 1,9 km/h (1 Bft)
16/04/2022 21:00 19,6 C 46 % 1013,1 hPa 0,0 mm 0,2 km/h (0 Bft) O-NO 0,00 h 0,025 mm 0 W/m 7,8 C 19,6 C 1,1 km/h (0 Bft)
16/04/2022 22:00 19,4 C 47 % 1013,5 hPa 0,0 mm 0,2 km/h (0 Bft) O-NO 0,00 h 0,051 mm 0 W/m 7,7 C 19,4 C 0,7 km/h (0 Bft)
16/04/2022 23:00 17,6 C 54 % 1015,2 hPa 0,0 mm 3,1 km/h (1 Bft) N-NE 0,00 h 0,051 mm 0 W/m 8,1 C 17,6 C 9,6 km/h (2 Bft)
17/04/2022 00:00 16,7 C 56 % 1016,0 hPa 0,0 mm 1,3 km/h (1 Bft) N-NE 0,00 h 0,051 mm 0 W/m 7,9 C 16,7 C 3,9 km/h (1 Bft)
17/04/2022 01:00 16,3 C 59 % 1016,3 hPa 0,0 mm 1,5 km/h (1 Bft) S-SO 0,00 h 0,051 mm 0 W/m 8,4 C 16,3 C 3,5 km/h (1 Bft)
17/04/2022 02:00 15,6 C 60 % 1016,2 hPa 0,0 mm 0,4 km/h (0 Bft) E-SE 0,00 h 0,051 mm 0 W/m 8,0 C 15,6 C 1,2 km/h (1 Bft)
17/04/2022 03:00 14,8 C 61 % 1016,1 hPa 0,0 mm 1,9 km/h (1 Bft) E 0,00 h 0,025 mm 0 W/m 7,4 C 14,8 C 4,6 km/h (1 Bft)
17/04/2022 04:00 14,3 C 68 % 1016,4 hPa 0,0 mm 2,5 km/h (1 Bft) N-NE 0,00 h 0,051 mm 0 W/m 8,3 C 14,3 C 7,0 km/h (2 Bft)
17/04/2022 05:00 13,8 C 66 % 1016,8 hPa 0,0 mm 1,0 km/h (0 Bft) NE 0,00 h 0,025 mm 0 W/m 7,6 C 13,8 C 3,9 km/h (1 Bft)
17/04/2022 06:00 12,9 C 72 % 1017,1 hPa 0,0 mm 0,5 km/h (0 Bft) E 0,02 h 0,025 mm 7 W/m 7,9 C 12,9 C 1,7 km/h (1 Bft)
17/04/2022 07:00 12,5 C 76 % 1017,2 hPa 0,0 mm 0,1 km/h (0 Bft) E 0,00 h 0,000 mm 22 W/m 8,4 C 12,5 C 0,6 km/h (0 Bft)
17/04/2022 08:00 13,8 C 74 % 1017,3 hPa 0,0 mm 0,6 km/h (0 Bft) S 0,00 h 0,025 mm 48 W/m 9,2 C 13,8 C 1,8 km/h (1 Bft)
17/04/2022 09:00 16,3 C 65 % 1017,3 hPa 0,0 mm 1,7 km/h (1 Bft) S 0,45 h 0,025 mm 223 W/m 9,6 C 16,3 C 4,7 km/h (1 Bft)
17/04/2022 10:00 17,8 C 60 % 1017,3 hPa 0,0 mm 5,3 km/h (1 Bft) S-SE 0,97 h 0,127 mm 454 W/m 10,0 C 17,8 C 10,3 km/h (2 Bft)
17/04/2022 11:00 18,3 C 58 % 1017,5 hPa 0,0 mm 7,0 km/h (2 Bft) S-SE 1,00 h 0,279 mm 682 W/m 9,8 C 18,3 C 13,5 km/h (3 Bft)
17/04/2022 12:00 19,7 C 52 % 1017,3 hPa 0,0 mm 3,5 km/h (1 Bft) E-SE 1,00 h 0,432 mm 767 W/m 9,5 C 19,7 C 8,7 km/h (2 Bft)
17/04/2022 13:00 19,7 C 51 % 1016,8 hPa 0,0 mm 3,9 km/h (1 Bft) E 1,00 h 0,457 mm 789 W/m 9,3 C 19,7 C 9,6 km/h (2 Bft)
17/04/2022 14:00 19,7 C 49 % 1016,4 hPa 0,0 mm 4,9 km/h (1 Bft) E 1,00 h 0,483 mm 759 W/m 8,8 C 19,7 C 10,6 km/h (2 Bft)
17/04/2022 15:00 19,9 C 47 % 1015,7 hPa 0,0 mm 3,3 km/h (1 Bft) E 1,00 h 0,457 mm 679 W/m 8,3 C 19,9 C 8,5 km/h (2 Bft)
17/04/2022 16:00 19,9 C 47 % 1015,0 hPa 0,0 mm 2,5 km/h (1 Bft) E 1,00 h 0,406 mm 559 W/m 8,1 C 19,9 C 5,8 km/h (2 Bft)
17/04/2022 17:00 18,8 C 48 % 1014,6 hPa 0,0 mm 1,5 km/h (1 Bft) S 0,38 h 0,330 mm 239 W/m 7,6 C 18,8 C 3,9 km/h (1 Bft)
17/04/2022 18:00 17,2 C 55 % 1014,6 hPa 0,0 mm 0,2 km/h (0 Bft) S 0,00 h 0,152 mm 102 W/m 8,0 C 17,2 C 0,8 km/h (0 Bft)
17/04/2022 19:00 16,6 C 56 % 1014,3 hPa 0,0 mm 0,0 km/h (0 Bft) S 0,00 h 0,076 mm 35 W/m 7,9 C 16,6 C 0,4 km/h (0 Bft)
17/04/2022 20:00 16,0 C 60 % 1014,2 hPa 0,0 mm 1,5 km/h (1 Bft) O-SO 0,05 h 0,025 mm 11 W/m 8,2 C 16,0 C 3,8 km/h (1 Bft)
17/04/2022 21:00 14,9 C 61 % 1014,6 hPa 0,0 mm 4,7 km/h (1 Bft) O-SO 0,00 h 0,025 mm 0 W/m 7,5 C 14,9 C 9,4 km/h (2 Bft)
17/04/2022 22:00 14,8 C 61 % 1014,6 hPa 0,0 mm 3,6 km/h (1 Bft) O-SO 0,00 h 0,051 mm 0 W/m 7,3 C 14,8 C 7,5 km/h (2 Bft)
17/04/2022 23:00 14,4 C 63 % 1014,9 hPa 0,0 mm 0,0 km/h (0 Bft) N 0,00 h 0,051 mm 0 W/m 7,4 C 14,4 C 0,0 km/h (0 Bft)
Min-Date _ 11/04/22 15/04/22 16/04/22 - 11/04/22 - - - - 11/04/22 11/04/22 11/04/22
_ Min-Heure 05:48 14:26 17:30 - 00:00 - - - - 06:55 05:48 00:00
Minimum _ 5,8 C 20 % 1011,8 hPa - 0,0 km/h (0 Bft) - - - - -3,0 C 5,8 C 0,0 km/h (0 Bft)
Max-Date _ 15/04/22 12/04/22 11/04/22 11/04/22 12/04/22 - 11/04/22 15/04/22 11/04/22 16/04/22 15/04/22 12/04/22
_ Max-Heure 15:07 02:03 11:15 00:00 11:07 - 09:04 15:00 14:18 15:21 15:07 12:33
Maximum _ 28,3 C 88 % 1021,7 hPa 0,0 mm 16,1 km/h
E (3 Bft)
- 0,02 h 0,584 mm 1072 W/m 11,9 C 28,3 C 30,6 km/h
E (5 Bft)
Moyenne _ 16,3 C 54 % 1016,6 hPa #0,0 mm 1,3 km/h (1 Bft) E #57:50 h #25,459 mm 356 W/m 6,3 C 16,3 C 3,6 km/h (1 Bft)
Roquefort les pins